sensor_id;sensor_type;location;lat;lon;timestamp;P1;durP1;ratioP1;P2;durP2;ratioP2
74259;SDS011;62630;55.874;37.516;2022-12-18T00:01:00;8.55;;;5.20;;
74259;SDS011;62630;55.874;37.516;2022-12-18T00:03:31;8.13;;;4.38;;
74259;SDS011;62630;55.874;37.516;2022-12-18T00:05:58;9.18;;;4.55;;
74259;SDS011;62630;55.874;37.516;2022-12-18T00:08:23;7.28;;;4.43;;
74259;SDS011;62630;55.874;37.516;2022-12-18T00:10:49;8.95;;;4.57;;
74259;SDS011;62630;55.874;37.516;2022-12-18T00:13:14;7.07;;;4.07;;
74259;SDS011;62630;55.874;37.516;2022-12-18T00:15:40;7.82;;;3.95;;
74259;SDS011;62630;55.874;37.516;2022-12-18T00:18:06;9.45;;;4.68;;
74259;SDS011;62630;55.874;37.516;2022-12-18T00:20:35;6.20;;;4.15;;
74259;SDS011;62630;55.874;37.516;2022-12-18T00:23:04;5.78;;;3.40;;
74259;SDS011;62630;55.874;37.516;2022-12-18T00:25:34;6.95;;;4.30;;
74259;SDS011;62630;55.874;37.516;2022-12-18T00:28:01;7.00;;;4.80;;
74259;SDS011;62630;55.874;37.516;2022-12-18T00:30:27;6.97;;;4.50;;
74259;SDS011;62630;55.874;37.516;2022-12-18T00:32:53;6.65;;;4.30;;
74259;SDS011;62630;55.874;37.516;2022-12-18T00:35:18;10.60;;;4.13;;
74259;SDS011;62630;55.874;37.516;2022-12-18T00:37:44;6.65;;;4.28;;
74259;SDS011;62630;55.874;37.516;2022-12-18T00:40:09;6.97;;;4.70;;
74259;SDS011;62630;55.874;37.516;2022-12-18T00:42:35;11.73;;;4.72;;
74259;SDS011;62630;55.874;37.516;2022-12-18T00:45:19;5.85;;;3.88;;
74259;SDS011;62630;55.874;37.516;2022-12-18T00:47:45;9.10;;;4.68;;
74259;SDS011;62630;55.874;37.516;2022-12-18T00:50:10;4.55;;;3.03;;
74259;SDS011;62630;55.874;37.516;2022-12-18T00:52:36;7.28;;;3.58;;
74259;SDS011;62630;55.874;37.516;2022-12-18T00:55:07;7.95;;;4.13;;
74259;SDS011;62630;55.874;37.516;2022-12-18T00:57:33;6.72;;;3.60;;
74259;SDS011;62630;55.874;37.516;2022-12-18T00:59:59;6.85;;;3.45;;
74259;SDS011;62630;55.874;37.516;2022-12-18T01:02:24;6.43;;;3.55;;
74259;SDS011;62630;55.874;37.516;2022-12-18T01:04:50;7.03;;;4.57;;
74259;SDS011;62630;55.874;37.516;2022-12-18T01:07:15;6.80;;;3.63;;
74259;SDS011;62630;55.874;37.516;2022-12-18T01:09:41;4.50;;;3.38;;
74259;SDS011;62630;55.874;37.516;2022-12-18T01:12:06;6.25;;;3.72;;
74259;SDS011;62630;55.874;37.516;2022-12-18T01:14:32;8.60;;;4.30;;
74259;SDS011;62630;55.874;37.516;2022-12-18T01:16:57;5.75;;;3.85;;
74259;SDS011;62630;55.874;37.516;2022-12-18T01:19:23;8.27;;;4.20;;
74259;SDS011;62630;55.874;37.516;2022-12-18T01:21:49;6.55;;;4.00;;
74259;SDS011;62630;55.874;37.516;2022-12-18T01:24:14;8.45;;;3.83;;
74259;SDS011;62630;55.874;37.516;2022-12-18T01:26:40;7.53;;;5.20;;
74259;SDS011;62630;55.874;37.516;2022-12-18T01:29:05;7.45;;;4.07;;
74259;SDS011;62630;55.874;37.516;2022-12-18T01:31:32;5.55;;;3.47;;
74259;SDS011;62630;55.874;37.516;2022-12-18T01:34:00;3.85;;;2.88;;
74259;SDS011;62630;55.874;37.516;2022-12-18T01:36:34;4.80;;;3.10;;
74259;SDS011;62630;55.874;37.516;2022-12-18T01:39:06;7.80;;;4.05;;
74259;SDS011;62630;55.874;37.516;2022-12-18T01:41:37;8.13;;;4.05;;
74259;SDS011;62630;55.874;37.516;2022-12-18T01:50:15;7.13;;;3.80;;
74259;SDS011;62630;55.874;37.516;2022-12-18T01:52:50;6.57;;;4.07;;
74259;SDS011;62630;55.874;37.516;2022-12-18T01:55:19;8.27;;;4.50;;
74259;SDS011;62630;55.874;37.516;2022-12-18T01:57:47;6.47;;;4.05;;
74259;SDS011;62630;55.874;37.516;2022-12-18T02:00:16;5.90;;;4.07;;
74259;SDS011;62630;55.874;37.516;2022-12-18T02:02:44;4.25;;;3.35;;
74259;SDS011;62630;55.874;37.516;2022-12-18T02:05:11;7.75;;;4.28;;
74259;SDS011;62630;55.874;37.516;2022-12-18T02:10:14;6.63;;;3.33;;
74259;SDS011;62630;55.874;37.516;2022-12-18T02:18:38;3.67;;;2.72;;
74259;SDS011;62630;55.874;37.516;2022-12-18T02:24:06;6.07;;;3.88;;
74259;SDS011;62630;55.874;37.516;2022-12-18T02:26:49;6.22;;;4.05;;
74259;SDS011;62630;55.874;37.516;2022-12-18T02:29:27;7.05;;;3.38;;
74259;SDS011;62630;55.874;37.516;2022-12-18T02:31:58;7.32;;;4.00;;
74259;SDS011;62630;55.874;37.516;2022-12-18T02:34:31;7.55;;;4.35;;
74259;SDS011;62630;55.874;37.516;2022-12-18T02:36:59;8.57;;;4.70;;
74259;SDS011;62630;55.874;37.516;2022-12-18T02:39:28;5.88;;;3.85;;
74259;SDS011;62630;55.874;37.516;2022-12-18T02:41:57;10.75;;;5.30;;
74259;SDS011;62630;55.874;37.516;2022-12-18T02:44:27;6.72;;;3.92;;
74259;SDS011;62630;55.874;37.516;2022-12-18T02:46:52;9.35;;;4.25;;
74259;SDS011;62630;55.874;37.516;2022-12-18T02:51:53;4.78;;;3.03;;
74259;SDS011;62630;55.874;37.516;2022-12-18T02:54:34;4.43;;;3.00;;
74259;SDS011;62630;55.874;37.516;2022-12-18T02:57:27;14.85;;;3.15;;
74259;SDS011;62630;55.874;37.516;2022-12-18T02:59:58;6.65;;;4.03;;
74259;SDS011;62630;55.874;37.516;2022-12-18T03:05:01;5.45;;;3.38;;
74259;SDS011;62630;55.874;37.516;2022-12-18T03:07:34;6.35;;;3.72;;
74259;SDS011;62630;55.874;37.516;2022-12-18T03:10:03;5.57;;;3.38;;
74259;SDS011;62630;55.874;37.516;2022-12-18T03:12:37;15.55;;;4.15;;
74259;SDS011;62630;55.874;37.516;2022-12-18T03:15:15;4.85;;;3.33;;
74259;SDS011;62630;55.874;37.516;2022-12-18T03:17:46;9.32;;;3.90;;
74259;SDS011;62630;55.874;37.516;2022-12-18T03:20:19;5.72;;;3.40;;
74259;SDS011;62630;55.874;37.516;2022-12-18T03:22:46;5.72;;;2.95;;
74259;SDS011;62630;55.874;37.516;2022-12-18T03:25:18;5.55;;;3.10;;
74259;SDS011;62630;55.874;37.516;2022-12-18T03:27:49;5.72;;;2.85;;
74259;SDS011;62630;55.874;37.516;2022-12-18T03:30:17;4.13;;;2.78;;
74259;SDS011;62630;55.874;37.516;2022-12-18T03:32:54;5.88;;;3.30;;
74259;SDS011;62630;55.874;37.516;2022-12-18T03:35:28;4.38;;;2.58;;
74259;SDS011;62630;55.874;37.516;2022-12-18T03:37:57;6.47;;;3.38;;
74259;SDS011;62630;55.874;37.516;2022-12-18T03:40:24;6.05;;;3.67;;
74259;SDS011;62630;55.874;37.516;2022-12-18T03:43:07;6.40;;;3.88;;
74259;SDS011;62630;55.874;37.516;2022-12-18T03:45:45;4.05;;;2.70;;
74259;SDS011;62630;55.874;37.516;2022-12-18T03:48:31;5.53;;;3.00;;
74259;SDS011;62630;55.874;37.516;2022-12-18T03:51:05;5.28;;;2.38;;
74259;SDS011;62630;55.874;37.516;2022-12-18T03:53:59;5.45;;;3.72;;
74259;SDS011;62630;55.874;37.516;2022-12-18T03:56:28;5.65;;;3.83;;
74259;SDS011;62630;55.874;37.516;2022-12-18T03:58:56;4.90;;;2.70;;
74259;SDS011;62630;55.874;37.516;2022-12-18T04:01:25;4.90;;;3.13;;
74259;SDS011;62630;55.874;37.516;2022-12-18T04:03:56;5.70;;;3.22;;
74259;SDS011;62630;55.874;37.516;2022-12-18T04:06:25;6.00;;;3.67;;
74259;SDS011;62630;55.874;37.516;2022-12-18T04:08:52;5.43;;;3.28;;
74259;SDS011;62630;55.874;37.516;2022-12-18T04:11:18;5.80;;;3.25;;
74259;SDS011;62630;55.874;37.516;2022-12-18T04:13:43;6.30;;;2.88;;
74259;SDS011;62630;55.874;37.516;2022-12-18T04:16:09;5.43;;;3.05;;
74259;SDS011;62630;55.874;37.516;2022-12-18T04:18:35;4.53;;;2.40;;
74259;SDS011;62630;55.874;37.516;2022-12-18T04:21:01;6.53;;;3.42;;
74259;SDS011;62630;55.874;37.516;2022-12-18T04:23:27;5.00;;;3.42;;
74259;SDS011;62630;55.874;37.516;2022-12-18T04:25:53;5.60;;;3.05;;
74259;SDS011;62630;55.874;37.516;2022-12-18T04:28:19;3.92;;;2.15;;
74259;SDS011;62630;55.874;37.516;2022-12-18T04:30:44;5.70;;;3.40;;
74259;SDS011;62630;55.874;37.516;2022-12-18T04:33:13;8.10;;;3.25;;
74259;SDS011;62630;55.874;37.516;2022-12-18T04:35:41;4.55;;;2.88;;
74259;SDS011;62630;55.874;37.516;2022-12-18T04:38:07;4.97;;;2.90;;
74259;SDS011;62630;55.874;37.516;2022-12-18T04:40:35;4.65;;;3.55;;
74259;SDS011;62630;55.874;37.516;2022-12-18T04:43:01;4.35;;;2.70;;
74259;SDS011;62630;55.874;37.516;2022-12-18T04:45:27;3.75;;;2.72;;
74259;SDS011;62630;55.874;37.516;2022-12-18T04:47:52;5.25;;;3.13;;
74259;SDS011;62630;55.874;37.516;2022-12-18T04:50:18;3.67;;;2.85;;
74259;SDS011;62630;55.874;37.516;2022-12-18T04:52:43;5.75;;;3.40;;
74259;SDS011;62630;55.874;37.516;2022-12-18T04:55:09;3.88;;;3.15;;
74259;SDS011;62630;55.874;37.516;2022-12-18T04:57:34;4.55;;;3.13;;
74259;SDS011;62630;55.874;37.516;2022-12-18T05:00:00;3.60;;;2.40;;
74259;SDS011;62630;55.874;37.516;2022-12-18T05:02:26;4.03;;;2.83;;
74259;SDS011;62630;55.874;37.516;2022-12-18T05:04:52;9.00;;;2.60;;
74259;SDS011;62630;55.874;37.516;2022-12-18T05:07:17;4.47;;;3.05;;
74259;SDS011;62630;55.874;37.516;2022-12-18T05:09:43;7.07;;;3.60;;
74259;SDS011;62630;55.874;37.516;2022-12-18T05:12:08;5.53;;;3.63;;
74259;SDS011;62630;55.874;37.516;2022-12-18T05:14:34;5.65;;;2.90;;
74259;SDS011;62630;55.874;37.516;2022-12-18T05:16:59;10.48;;;3.20;;
74259;SDS011;62630;55.874;37.516;2022-12-18T05:19:25;4.78;;;3.20;;
74259;SDS011;62630;55.874;37.516;2022-12-18T05:21:50;6.35;;;3.35;;
74259;SDS011;62630;55.874;37.516;2022-12-18T05:24:16;5.90;;;3.15;;
74259;SDS011;62630;55.874;37.516;2022-12-18T05:26:41;5.95;;;3.35;;
74259;SDS011;62630;55.874;37.516;2022-12-18T05:29:07;6.68;;;3.00;;
74259;SDS011;62630;55.874;37.516;2022-12-18T05:31:32;10.10;;;3.90;;
74259;SDS011;62630;55.874;37.516;2022-12-18T05:33:58;6.22;;;3.00;;
74259;SDS011;62630;55.874;37.516;2022-12-18T05:36:23;4.28;;;2.80;;
74259;SDS011;62630;55.874;37.516;2022-12-18T05:38:49;6.35;;;3.20;;
74259;SDS011;62630;55.874;37.516;2022-12-18T05:41:14;5.90;;;3.75;;
74259;SDS011;62630;55.874;37.516;2022-12-18T05:43:40;6.85;;;3.70;;
74259;SDS011;62630;55.874;37.516;2022-12-18T05:46:11;6.90;;;3.65;;
74259;SDS011;62630;55.874;37.516;2022-12-18T05:48:38;5.03;;;3.30;;
74259;SDS011;62630;55.874;37.516;2022-12-18T05:51:08;6.47;;;3.72;;
74259;SDS011;62630;55.874;37.516;2022-12-18T05:53:39;7.43;;;3.28;;
74259;SDS011;62630;55.874;37.516;2022-12-18T05:56:07;5.28;;;3.50;;
74259;SDS011;62630;55.874;37.516;2022-12-18T05:58:36;5.68;;;3.58;;
74259;SDS011;62630;55.874;37.516;2022-12-18T06:01:36;4.32;;;3.33;;
74259;SDS011;62630;55.874;37.516;2022-12-18T06:03:54;4.97;;;3.83;;
74259;SDS011;62630;55.874;37.516;2022-12-18T06:06:21;5.38;;;2.95;;
74259;SDS011;62630;55.874;37.516;2022-12-18T06:11:16;5.43;;;3.20;;
74259;SDS011;62630;55.874;37.516;2022-12-18T06:13:43;6.00;;;3.22;;
74259;SDS011;62630;55.874;37.516;2022-12-18T06:16:09;5.35;;;2.88;;
74259;SDS011;62630;55.874;37.516;2022-12-18T06:18:37;4.85;;;2.97;;
74259;SDS011;62630;55.874;37.516;2022-12-18T06:21:03;5.97;;;3.20;;
74259;SDS011;62630;55.874;37.516;2022-12-18T06:23:28;6.22;;;3.42;;
74259;SDS011;62630;55.874;37.516;2022-12-18T06:25:54;6.03;;;3.25;;
74259;SDS011;62630;55.874;37.516;2022-12-18T06:28:20;6.05;;;2.58;;
74259;SDS011;62630;55.874;37.516;2022-12-18T06:30:46;4.78;;;3.05;;
74259;SDS011;62630;55.874;37.516;2022-12-18T06:33:13;4.57;;;2.90;;
74259;SDS011;62630;55.874;37.516;2022-12-18T06:35:39;5.40;;;3.35;;
74259;SDS011;62630;55.874;37.516;2022-12-18T06:38:05;5.78;;;3.03;;
74259;SDS011;62630;55.874;37.516;2022-12-18T06:40:30;6.32;;;3.35;;
74259;SDS011;62630;55.874;37.516;2022-12-18T06:42:57;5.93;;;2.85;;
74259;SDS011;62630;55.874;37.516;2022-12-18T06:45:22;8.93;;;3.28;;
74259;SDS011;62630;55.874;37.516;2022-12-18T06:47:48;8.13;;;3.45;;
74259;SDS011;62630;55.874;37.516;2022-12-18T06:50:13;6.30;;;3.58;;
74259;SDS011;62630;55.874;37.516;2022-12-18T06:52:39;5.82;;;3.33;;
74259;SDS011;62630;55.874;37.516;2022-12-18T06:55:06;7.93;;;3.55;;
74259;SDS011;62630;55.874;37.516;2022-12-18T06:57:34;6.25;;;3.72;;
74259;SDS011;62630;55.874;37.516;2022-12-18T07:00:00;6.03;;;3.30;;
74259;SDS011;62630;55.874;37.516;2022-12-18T07:02:26;5.95;;;3.70;;
74259;SDS011;62630;55.874;37.516;2022-12-18T07:04:51;7.43;;;3.45;;
74259;SDS011;62630;55.874;37.516;2022-12-18T07:07:17;5.25;;;2.75;;
74259;SDS011;62630;55.874;37.516;2022-12-18T07:09:43;6.78;;;3.85;;
74259;SDS011;62630;55.874;37.516;2022-12-18T07:12:08;5.60;;;3.10;;
74259;SDS011;62630;55.874;37.516;2022-12-18T07:14:34;5.55;;;3.10;;
74259;SDS011;62630;55.874;37.516;2022-12-18T07:16:59;6.07;;;3.65;;
74259;SDS011;62630;55.874;37.516;2022-12-18T07:19:25;6.03;;;3.45;;
74259;SDS011;62630;55.874;37.516;2022-12-18T07:21:51;5.40;;;2.50;;
74259;SDS011;62630;55.874;37.516;2022-12-18T07:24:17;8.50;;;3.65;;
74259;SDS011;62630;55.874;37.516;2022-12-18T07:26:45;4.93;;;3.40;;
74259;SDS011;62630;55.874;37.516;2022-12-18T07:29:11;4.50;;;3.63;;
74259;SDS011;62630;55.874;37.516;2022-12-18T07:31:36;6.13;;;3.05;;
74259;SDS011;62630;55.874;37.516;2022-12-18T07:34:02;4.03;;;2.60;;
74259;SDS011;62630;55.874;37.516;2022-12-18T07:36:27;5.03;;;2.65;;
74259;SDS011;62630;55.874;37.516;2022-12-18T07:38:53;5.13;;;3.83;;
74259;SDS011;62630;55.874;37.516;2022-12-18T07:41:18;4.78;;;3.25;;
74259;SDS011;62630;55.874;37.516;2022-12-18T07:43:45;5.90;;;3.50;;
74259;SDS011;62630;55.874;37.516;2022-12-18T07:46:11;5.10;;;3.05;;
74259;SDS011;62630;55.874;37.516;2022-12-18T07:48:39;7.15;;;3.00;;
74259;SDS011;62630;55.874;37.516;2022-12-18T07:51:05;6.50;;;3.78;;
74259;SDS011;62630;55.874;37.516;2022-12-18T07:53:32;5.18;;;3.10;;
74259;SDS011;62630;55.874;37.516;2022-12-18T07:55:59;4.68;;;2.90;;
74259;SDS011;62630;55.874;37.516;2022-12-18T07:58:27;5.75;;;3.50;;
74259;SDS011;62630;55.874;37.516;2022-12-18T08:00:53;4.47;;;3.17;;
74259;SDS011;62630;55.874;37.516;2022-12-18T08:03:19;5.35;;;2.97;;
74259;SDS011;62630;55.874;37.516;2022-12-18T08:05:45;5.28;;;3.05;;
74259;SDS011;62630;55.874;37.516;2022-12-18T08:08:10;5.03;;;2.63;;
74259;SDS011;62630;55.874;37.516;2022-12-18T08:10:37;4.35;;;2.80;;
74259;SDS011;62630;55.874;37.516;2022-12-18T08:13:02;4.78;;;3.05;;
74259;SDS011;62630;55.874;37.516;2022-12-18T08:15:28;7.03;;;3.42;;
74259;SDS011;62630;55.874;37.516;2022-12-18T08:17:56;8.00;;;3.60;;
74259;SDS011;62630;55.874;37.516;2022-12-18T08:20:22;5.35;;;3.10;;
74259;SDS011;62630;55.874;37.516;2022-12-18T08:22:50;5.30;;;2.70;;
74259;SDS011;62630;55.874;37.516;2022-12-18T08:25:16;6.97;;;3.08;;
74259;SDS011;62630;55.874;37.516;2022-12-18T08:27:43;3.92;;;2.20;;
74259;SDS011;62630;55.874;37.516;2022-12-18T08:30:08;3.65;;;2.67;;
74259;SDS011;62630;55.874;37.516;2022-12-18T08:32:37;6.78;;;3.65;;
74259;SDS011;62630;55.874;37.516;2022-12-18T08:35:03;6.32;;;3.38;;
74259;SDS011;62630;55.874;37.516;2022-12-18T08:37:29;5.70;;;3.50;;
74259;SDS011;62630;55.874;37.516;2022-12-18T08:39:54;6.43;;;3.30;;
74259;SDS011;62630;55.874;37.516;2022-12-18T08:42:20;5.25;;;3.20;;
74259;SDS011;62630;55.874;37.516;2022-12-18T08:45:04;4.72;;;2.75;;
74259;SDS011;62630;55.874;37.516;2022-12-18T08:47:30;5.75;;;3.45;;
74259;SDS011;62630;55.874;37.516;2022-12-18T08:49:55;5.72;;;2.60;;
74259;SDS011;62630;55.874;37.516;2022-12-18T08:52:21;7.22;;;4.15;;
74259;SDS011;62630;55.874;37.516;2022-12-18T08:54:46;5.00;;;2.90;;
74259;SDS011;62630;55.874;37.516;2022-12-18T08:57:12;5.72;;;3.53;;
74259;SDS011;62630;55.874;37.516;2022-12-18T08:59:37;7.20;;;3.20;;
74259;SDS011;62630;55.874;37.516;2022-12-18T09:02:03;6.10;;;3.42;;
74259;SDS011;62630;55.874;37.516;2022-12-18T09:04:28;3.97;;;2.45;;
74259;SDS011;62630;55.874;37.516;2022-12-18T09:06:54;5.22;;;2.85;;
74259;SDS011;62630;55.874;37.516;2022-12-18T09:09:19;4.63;;;2.72;;
74259;SDS011;62630;55.874;37.516;2022-12-18T09:11:45;7.78;;;3.30;;
74259;SDS011;62630;55.874;37.516;2022-12-18T09:14:10;4.97;;;3.30;;
74259;SDS011;62630;55.874;37.516;2022-12-18T09:16:36;3.85;;;2.78;;
74259;SDS011;62630;55.874;37.516;2022-12-18T09:19:02;5.00;;;2.70;;
74259;SDS011;62630;55.874;37.516;2022-12-18T09:21:30;4.85;;;3.22;;
74259;SDS011;62630;55.874;37.516;2022-12-18T09:23:58;6.05;;;3.38;;
74259;SDS011;62630;55.874;37.516;2022-12-18T09:26:24;4.85;;;2.42;;
74259;SDS011;62630;55.874;37.516;2022-12-18T09:28:50;3.75;;;2.40;;
74259;SDS011;62630;55.874;37.516;2022-12-18T09:31:16;9.27;;;3.13;;
74259;SDS011;62630;55.874;37.516;2022-12-18T09:33:43;4.25;;;2.33;;
74259;SDS011;62630;55.874;37.516;2022-12-18T09:36:11;4.35;;;2.67;;
74259;SDS011;62630;55.874;37.516;2022-12-18T09:38:38;3.53;;;2.60;;
74259;SDS011;62630;55.874;37.516;2022-12-18T09:41:05;6.15;;;3.42;;
74259;SDS011;62630;55.874;37.516;2022-12-18T09:43:41;5.43;;;2.90;;
74259;SDS011;62630;55.874;37.516;2022-12-18T09:46:15;6.78;;;3.15;;
74259;SDS011;62630;55.874;37.516;2022-12-18T09:48:45;5.95;;;3.22;;
74259;SDS011;62630;55.874;37.516;2022-12-18T09:51:34;5.70;;;3.20;;
74259;SDS011;62630;55.874;37.516;2022-12-18T09:54:06;5.07;;;2.50;;
74259;SDS011;62630;55.874;37.516;2022-12-18T09:56:38;2.92;;;2.15;;
74259;SDS011;62630;55.874;37.516;2022-12-18T09:59:14;7.47;;;3.25;;
74259;SDS011;62630;55.874;37.516;2022-12-18T10:02:07;5.90;;;3.28;;
74259;SDS011;62630;55.874;37.516;2022-12-18T10:04:39;4.15;;;2.40;;
74259;SDS011;62630;55.874;37.516;2022-12-18T10:07:23;5.07;;;2.67;;
74259;SDS011;62630;55.874;37.516;2022-12-18T10:10:19;5.32;;;2.85;;
74259;SDS011;62630;55.874;37.516;2022-12-18T10:15:36;4.30;;;2.65;;
74259;SDS011;62630;55.874;37.516;2022-12-18T10:18:15;8.93;;;3.63;;
74259;SDS011;62630;55.874;37.516;2022-12-18T10:21:30;4.30;;;2.95;;
74259;SDS011;62630;55.874;37.516;2022-12-18T10:24:08;6.97;;;2.55;;
74259;SDS011;62630;55.874;37.516;2022-12-18T10:26:46;5.78;;;2.80;;
74259;SDS011;62630;55.874;37.516;2022-12-18T10:29:13;4.82;;;2.92;;
74259;SDS011;62630;55.874;37.516;2022-12-18T10:31:40;4.50;;;3.35;;
74259;SDS011;62630;55.874;37.516;2022-12-18T10:34:10;4.68;;;2.67;;
74259;SDS011;62630;55.874;37.516;2022-12-18T10:36:41;4.28;;;2.83;;
74259;SDS011;62630;55.874;37.516;2022-12-18T10:39:14;4.57;;;2.80;;
74259;SDS011;62630;55.874;37.516;2022-12-18T10:44:20;7.47;;;3.10;;
74259;SDS011;62630;55.874;37.516;2022-12-18T10:46:48;4.28;;;2.83;;
74259;SDS011;62630;55.874;37.516;2022-12-18T10:49:19;5.18;;;2.75;;
74259;SDS011;62630;55.874;37.516;2022-12-18T10:51:47;7.22;;;3.15;;
74259;SDS011;62630;55.874;37.516;2022-12-18T10:54:17;6.20;;;3.15;;
74259;SDS011;62630;55.874;37.516;2022-12-18T10:56:44;5.45;;;2.85;;
74259;SDS011;62630;55.874;37.516;2022-12-18T10:59:10;5.65;;;2.92;;
74259;SDS011;62630;55.874;37.516;2022-12-18T11:01:53;4.68;;;3.03;;
74259;SDS011;62630;55.874;37.516;2022-12-18T11:04:21;4.10;;;2.50;;
74259;SDS011;62630;55.874;37.516;2022-12-18T11:06:53;5.57;;;3.20;;
74259;SDS011;62630;55.874;37.516;2022-12-18T11:09:28;6.30;;;2.55;;
74259;SDS011;62630;55.874;37.516;2022-12-18T11:11:58;5.18;;;2.50;;
74259;SDS011;62630;55.874;37.516;2022-12-18T11:14:29;5.68;;;3.00;;
74259;SDS011;62630;55.874;37.516;2022-12-18T11:16:58;3.30;;;2.42;;
74259;SDS011;62630;55.874;37.516;2022-12-18T11:19:34;4.75;;;2.40;;
74259;SDS011;62630;55.874;37.516;2022-12-18T11:22:03;3.75;;;2.30;;
74259;SDS011;62630;55.874;37.516;2022-12-18T11:25:00;4.25;;;2.38;;
74259;SDS011;62630;55.874;37.516;2022-12-18T11:27:30;4.35;;;2.20;;
74259;SDS011;62630;55.874;37.516;2022-12-18T11:32:49;5.07;;;2.55;;
74259;SDS011;62630;55.874;37.516;2022-12-18T11:38:32;5.57;;;2.67;;
74259;SDS011;62630;55.874;37.516;2022-12-18T11:41:05;2.97;;;2.33;;
74259;SDS011;62630;55.874;37.516;2022-12-18T11:44:18;3.97;;;1.77;;
74259;SDS011;62630;55.874;37.516;2022-12-18T11:46:51;7.97;;;2.35;;
74259;SDS011;62630;55.874;37.516;2022-12-18T11:49:25;4.22;;;1.95;;
74259;SDS011;62630;55.874;37.516;2022-12-18T11:52:03;3.33;;;1.98;;
74259;SDS011;62630;55.874;37.516;2022-12-18T11:54:35;3.05;;;1.85;;
74259;SDS011;62630;55.874;37.516;2022-12-18T12:02:43;3.20;;;2.15;;
74259;SDS011;62630;55.874;37.516;2022-12-18T12:16:15;2.88;;;1.30;;
74259;SDS011;62630;55.874;37.516;2022-12-18T12:27:06;3.58;;;2.10;;
74259;SDS011;62630;55.874;37.516;2022-12-18T12:30:06;3.72;;;2.15;;
74259;SDS011;62630;55.874;37.516;2022-12-18T12:38:10;5.07;;;2.55;;
74259;SDS011;62630;55.874;37.516;2022-12-18T12:40:53;4.22;;;2.63;;
74259;SDS011;62630;55.874;37.516;2022-12-18T12:46:05;3.30;;;1.85;;
74259;SDS011;62630;55.874;37.516;2022-12-18T12:51:35;5.40;;;2.95;;
74259;SDS011;62630;55.874;37.516;2022-12-18T12:54:05;5.65;;;2.97;;
74259;SDS011;62630;55.874;37.516;2022-12-18T12:56:59;7.88;;;3.28;;
74259;SDS011;62630;55.874;37.516;2022-12-18T12:59:40;7.97;;;3.45;;
74259;SDS011;62630;55.874;37.516;2022-12-18T13:05:03;8.25;;;3.97;;
74259;SDS011;62630;55.874;37.516;2022-12-18T13:07:45;10.00;;;4.43;;
74259;SDS011;62630;55.874;37.516;2022-12-18T13:18:16;13.75;;;5.53;;
74259;SDS011;62630;55.874;37.516;2022-12-18T13:21:16;13.23;;;5.55;;
74259;SDS011;62630;55.874;37.516;2022-12-18T13:23:46;11.63;;;4.82;;
74259;SDS011;62630;55.874;37.516;2022-12-18T13:31:13;8.82;;;4.43;;
74259;SDS011;62630;55.874;37.516;2022-12-18T13:33:44;10.77;;;5.30;;
74259;SDS011;62630;55.874;37.516;2022-12-18T13:36:33;11.70;;;4.82;;
74259;SDS011;62630;55.874;37.516;2022-12-18T13:41:43;9.30;;;4.40;;
74259;SDS011;62630;55.874;37.516;2022-12-18T13:44:11;9.52;;;4.97;;
74259;SDS011;62630;55.874;37.516;2022-12-18T13:46:43;13.32;;;4.90;;
74259;SDS011;62630;55.874;37.516;2022-12-18T13:51:39;8.60;;;4.45;;
74259;SDS011;62630;55.874;37.516;2022-12-18T13:56:47;12.63;;;5.10;;
74259;SDS011;62630;55.874;37.516;2022-12-18T13:59:20;9.57;;;4.13;;
74259;SDS011;62630;55.874;37.516;2022-12-18T14:01:50;8.43;;;3.55;;
74259;SDS011;62630;55.874;37.516;2022-12-18T14:04:30;5.57;;;3.17;;
74259;SDS011;62630;55.874;37.516;2022-12-18T14:07:07;6.15;;;3.15;;
74259;SDS011;62630;55.874;37.516;2022-12-18T14:09:39;7.50;;;3.60;;
74259;SDS011;62630;55.874;37.516;2022-12-18T14:12:12;8.13;;;3.55;;
74259;SDS011;62630;55.874;37.516;2022-12-18T14:15:06;5.40;;;2.75;;
74259;SDS011;62630;55.874;37.516;2022-12-18T14:20:27;5.65;;;3.15;;
74259;SDS011;62630;55.874;37.516;2022-12-18T14:22:54;6.68;;;3.13;;
74259;SDS011;62630;55.874;37.516;2022-12-18T14:25:25;6.18;;;2.80;;
74259;SDS011;62630;55.874;37.516;2022-12-18T14:27:57;7.70;;;3.88;;
74259;SDS011;62630;55.874;37.516;2022-12-18T14:33:16;3.75;;;2.25;;
74259;SDS011;62630;55.874;37.516;2022-12-18T14:35:53;6.32;;;2.80;;
74259;SDS011;62630;55.874;37.516;2022-12-18T14:38:20;4.38;;;2.65;;
74259;SDS011;62630;55.874;37.516;2022-12-18T14:40:57;5.32;;;3.00;;
74259;SDS011;62630;55.874;37.516;2022-12-18T14:43:25;4.57;;;2.80;;
74259;SDS011;62630;55.874;37.516;2022-12-18T14:45:51;6.32;;;2.60;;
74259;SDS011;62630;55.874;37.516;2022-12-18T14:53:48;4.10;;;2.47;;
74259;SDS011;62630;55.874;37.516;2022-12-18T14:56:34;6.15;;;2.33;;
74259;SDS011;62630;55.874;37.516;2022-12-18T14:59:03;3.60;;;2.17;;
74259;SDS011;62630;55.874;37.516;2022-12-18T15:04:27;4.53;;;2.85;;
74259;SDS011;62630;55.874;37.516;2022-12-18T15:07:13;4.43;;;2.30;;
74259;SDS011;62630;55.874;37.516;2022-12-18T15:09:44;4.85;;;2.70;;
74259;SDS011;62630;55.874;37.516;2022-12-18T15:12:41;4.75;;;2.53;;
74259;SDS011;62630;55.874;37.516;2022-12-18T15:18:02;5.13;;;2.25;;
74259;SDS011;62630;55.874;37.516;2022-12-18T15:20:40;5.43;;;3.40;;
74259;SDS011;62630;55.874;37.516;2022-12-18T15:25:41;5.80;;;3.13;;
74259;SDS011;62630;55.874;37.516;2022-12-18T15:28:22;5.88;;;3.00;;
74259;SDS011;62630;55.874;37.516;2022-12-18T15:36:10;4.07;;;2.70;;
74259;SDS011;62630;55.874;37.516;2022-12-18T15:38:37;4.18;;;2.70;;
74259;SDS011;62630;55.874;37.516;2022-12-18T15:41:13;3.22;;;2.15;;
74259;SDS011;62630;55.874;37.516;2022-12-18T15:43:40;5.68;;;3.00;;
74259;SDS011;62630;55.874;37.516;2022-12-18T15:46:09;4.95;;;2.20;;
74259;SDS011;62630;55.874;37.516;2022-12-18T15:48:48;6.10;;;2.28;;
74259;SDS011;62630;55.874;37.516;2022-12-18T15:51:33;5.10;;;2.92;;
74259;SDS011;62630;55.874;37.516;2022-12-18T15:54:02;4.15;;;2.33;;
74259;SDS011;62630;55.874;37.516;2022-12-18T15:56:30;5.45;;;3.10;;
74259;SDS011;62630;55.874;37.516;2022-12-18T15:59:15;5.13;;;2.60;;
74259;SDS011;62630;55.874;37.516;2022-12-18T16:01:43;4.95;;;2.53;;
74259;SDS011;62630;55.874;37.516;2022-12-18T16:04:14;4.93;;;2.80;;
74259;SDS011;62630;55.874;37.516;2022-12-18T16:06:42;3.28;;;1.98;;
74259;SDS011;62630;55.874;37.516;2022-12-18T16:09:14;3.63;;;2.65;;
74259;SDS011;62630;55.874;37.516;2022-12-18T16:11:41;4.50;;;2.63;;
74259;SDS011;62630;55.874;37.516;2022-12-18T16:14:25;5.05;;;3.13;;
74259;SDS011;62630;55.874;37.516;2022-12-18T16:16:56;4.85;;;2.42;;
74259;SDS011;62630;55.874;37.516;2022-12-18T16:19:24;4.95;;;3.10;;
74259;SDS011;62630;55.874;37.516;2022-12-18T16:21:51;4.97;;;3.00;;
74259;SDS011;62630;55.874;37.516;2022-12-18T16:24:24;4.13;;;2.40;;
74259;SDS011;62630;55.874;37.516;2022-12-18T16:26:52;3.22;;;2.05;;
74259;SDS011;62630;55.874;37.516;2022-12-18T16:29:19;3.85;;;2.40;;
74259;SDS011;62630;55.874;37.516;2022-12-18T16:31:52;3.78;;;2.47;;
74259;SDS011;62630;55.874;37.516;2022-12-18T16:34:26;3.90;;;2.58;;
74259;SDS011;62630;55.874;37.516;2022-12-18T16:36:53;3.95;;;2.60;;
74259;SDS011;62630;55.874;37.516;2022-12-18T16:39:29;5.97;;;2.45;;
74259;SDS011;62630;55.874;37.516;2022-12-18T16:41:55;5.90;;;3.08;;
74259;SDS011;62630;55.874;37.516;2022-12-18T16:44:21;4.63;;;2.63;;
74259;SDS011;62630;55.874;37.516;2022-12-18T16:46:47;4.70;;;2.70;;
74259;SDS011;62630;55.874;37.516;2022-12-18T16:49:14;6.10;;;3.55;;
74259;SDS011;62630;55.874;37.516;2022-12-18T16:51:41;5.10;;;2.92;;